Gillette, WY

6:59 PM MDT on July 29, 2014 (GMT -0600)
Gillette-Campbell County (KGCC) Elev 4364 ft | 44.34 °N, 105.54 °W | Change Station

Current weather conditions updated 6 minutes ago

Clear
Clear
68 °F
Feels Like 68 °F
N
4
Wind Variable Wind from SW

Tomorrow is forecast to be Much Warmer than today.

Today
High -- | Low -- °F
--% Chance of Precip.
Yesterday
High -- | Low -- °F
Precip. -- in
5:46 AM 8:31 PM
Waxing Crescent, 8% visible
Pressure 30.15 in
Visibility 10.0 miles
Clouds Clear
Dew Point 55 °F
Humidity 63%
Rainfall 0.22 in
Snow Depth Not available.
UV 1 out of 12
Pollen 6.30 out of 12
Air Quality Not available.
Flu Activity Not available.
METAR KGCC 300053Z AUTO 23003KT 10SM CLR 20/13 A3025 RMK AO2 SLP208 T02000128

More Conditions Fewer Conditions

Pressure 30.15 in
Visibility 10.0 miles
Clouds Clear
Dew Point 55 °F
Humidity 63%
Rainfall 0.22 in
Snow Depth Not available.
UV 1 out of 12
Pollen 6.30 out of 12
Air Quality Not available.
Flu Activity Not available.
METAR KGCC 300053Z AUTO 23003KT 10SM CLR 20/13 A3025 RMK AO2 SLP208 T02000128

More Conditions Fewer Conditions

10-Day Weather Forecast

Almanac

Astronomy

Jul. 29, 2014 Rise Set
Actual Time 5:46 AM MDT 8:31 PM MDT
Civil Twilight 5:12 AM MDT 9:05 PM MDT
Nautical Twilight 4:29 AM MDT 9:47 PM MDT
Astronomical Twilight 3:39 AM MDT 10:37 PM MDT
Moon 8:33 AM MDT (7/29) 9:35 PM MDT (7/29)
Length of Visible Light 15h 53m
Length of Day
14h 45m
Tomorrow will be 2m 17s shorter.
Waxing Crescent, 8% of the Moon is Illuminated
Today
Waxing Crescent
Aug 3
First Quarter
Aug 10
Full
Aug 17
Last Quarter
Aug 25
New

Today's Extremes

State Highs State Lows

Community

WunderPhotos

Upload Photos

1,738,924 photos uploaded!

Nearby

Snow Depth

Station Depth Elevation
Cole Canyon 0 in 5910 ft
Hansen Sawmill 0 in 8360 ft
Powder River Pass 0 in 9480 ft
Bear Trap Meadow 0 in 8200 ft
Shell Creek 0 in 9580 ft

Earthquake Activity

City Distance Mag. Time & Date
No recent earthquake activity has been reported nearby.
Minimum magnitude displayed is 2.5.

Coastal Water Temperatures

Place Temperature
No Stations Reporting

Nearby Weather Stations

Station Location Temp. Heat Index Dew Point Humidity Wind Precip. Elev Updated Type
RAWS ECHETA WY, Gillette, WY 71 °F 77 °F 51 °F 49% SW  at  8 mph 0.00 in / hr 4396 ft 5:51 PM MDT MADIS

Show More Stations Show Fewer Stations